createdAt,value
2017-07-30T00:00:50.759Z,17.23
2017-07-30T00:03:18.608Z,17.27
2017-07-30T00:05:46.394Z,17.32
2017-07-30T00:08:14.240Z,17.46
2017-07-30T00:10:42.048Z,17.57
2017-07-30T00:13:09.871Z,17.67
2017-07-30T00:15:37.643Z,17.74
2017-07-30T00:18:05.440Z,17.83
2017-07-30T00:20:33.264Z,17.92
2017-07-30T00:23:01.052Z,18.02
2017-07-30T00:25:28.888Z,18.08
2017-07-30T00:27:56.660Z,18.09
2017-07-30T00:30:24.502Z,18.14
2017-07-30T00:32:52.280Z,18.17
2017-07-30T00:35:20.115Z,18.19
2017-07-30T00:37:47.945Z,18.21
2017-07-30T00:40:15.766Z,18.26
2017-07-30T00:42:43.556Z,18.29
2017-07-30T00:45:11.398Z,18.32
2017-07-30T00:47:39.189Z,18.34
2017-07-30T00:50:06.989Z,18.36
2017-07-30T00:52:34.815Z,18.38
2017-07-30T00:55:02.625Z,18.38
2017-07-30T00:57:30.445Z,18.39
2017-07-30T00:59:58.232Z,18.39
2017-07-30T01:02:26.049Z,18.35
2017-07-30T01:04:53.828Z,18.30
2017-07-30T01:07:21.666Z,18.26
2017-07-30T01:09:49.443Z,18.24
2017-07-30T01:12:17.286Z,18.23
2017-07-30T01:14:45.112Z,18.24
2017-07-30T01:17:12.914Z,18.26
2017-07-30T01:19:40.737Z,18.27
2017-07-30T01:22:08.517Z,18.28
2017-07-30T01:24:36.429Z,18.26
2017-07-30T01:27:04.225Z,18.24
2017-07-30T01:29:32.062Z,18.23
2017-07-30T01:31:59.868Z,18.25
2017-07-30T01:34:27.727Z,18.28
2017-07-30T01:36:55.548Z,18.26
2017-07-30T01:39:23.404Z,18.26
2017-07-30T01:41:51.202Z,18.25
2017-07-30T01:44:18.995Z,18.22
2017-07-30T01:46:46.832Z,18.24
2017-07-30T01:49:14.620Z,18.27
2017-07-30T01:51:42.458Z,18.30
2017-07-30T01:54:10.279Z,18.33
2017-07-30T01:56:38.129Z,18.35
2017-07-30T01:59:05.933Z,18.37
2017-07-30T02:01:33.774Z,18.39
2017-07-30T02:04:01.536Z,18.41
2017-07-30T02:06:29.357Z,18.44
2017-07-30T02:08:57.157Z,18.47
2017-07-30T02:11:24.947Z,18.53
2017-07-30T02:13:52.770Z,18.61
2017-07-30T02:16:20.544Z,18.65
2017-07-30T02:18:48.382Z,18.67
2017-07-30T02:21:16.193Z,18.71
2017-07-30T02:23:44.148Z,18.76
2017-07-30T02:26:11.927Z,18.81
2017-07-30T02:28:39.764Z,18.85
2017-07-30T02:31:07.533Z,18.85
2017-07-30T02:33:35.357Z,18.93
2017-07-30T02:36:03.192Z,18.95
2017-07-30T02:38:30.985Z,18.96
2017-07-30T02:40:58.805Z,18.96
2017-07-30T02:43:26.593Z,18.98
2017-07-30T02:45:54.446Z,18.98
2017-07-30T02:48:22.224Z,18.96
2017-07-30T02:50:50.061Z,18.91
2017-07-30T02:53:17.858Z,18.87
2017-07-30T02:55:45.668Z,18.84
2017-07-30T02:58:13.449Z,18.83
2017-07-30T03:00:41.327Z,18.81
2017-07-30T03:03:09.104Z,18.82
2017-07-30T03:05:36.876Z,18.85
2017-07-30T03:08:04.716Z,18.86
2017-07-30T03:10:32.510Z,18.86
2017-07-30T03:13:00.328Z,18.87
2017-07-30T03:15:28.116Z,18.90
2017-07-30T03:17:55.946Z,18.92
2017-07-30T03:20:23.732Z,18.92
2017-07-30T03:22:51.541Z,18.91
2017-07-30T03:25:19.315Z,18.89
2017-07-30T03:27:47.168Z,18.86
2017-07-30T03:30:14.947Z,18.82
2017-07-30T03:32:42.767Z,18.79
2017-07-30T03:35:11.777Z,18.79
2017-07-30T03:37:39.652Z,18.82
2017-07-30T03:40:07.449Z,18.83
2017-07-30T03:42:35.283Z,18.84
2017-07-30T03:45:03.069Z,18.83
2017-07-30T03:47:30.925Z,18.81
2017-07-30T03:49:58.715Z,18.80
2017-07-30T03:52:26.518Z,18.78
2017-07-30T03:54:54.314Z,18.79
2017-07-30T03:57:22.143Z,18.83
2017-07-30T03:59:49.912Z,18.83
2017-07-30T04:02:17.774Z,18.81
2017-07-30T04:04:45.551Z,18.78
2017-07-30T04:07:13.340Z,18.81
2017-07-30T04:09:41.144Z,18.78
2017-07-30T04:12:08.920Z,18.78
2017-07-30T04:14:36.749Z,18.84
2017-07-30T04:17:04.562Z,18.93
2017-07-30T04:19:32.387Z,19.00
2017-07-30T04:22:00.169Z,19.03
2017-07-30T04:24:28.032Z,19.07
2017-07-30T04:26:55.832Z,19.10
2017-07-30T04:29:23.648Z,19.14
2017-07-30T04:31:51.433Z,19.20
2017-07-30T04:34:19.251Z,19.28
2017-07-30T04:36:47.065Z,19.37
2017-07-30T04:39:14.944Z,19.39
2017-07-30T04:41:42.727Z,19.38
2017-07-30T04:44:10.568Z,19.39
2017-07-30T04:46:38.343Z,19.41
2017-07-30T04:49:06.157Z,19.48
2017-07-30T04:51:33.955Z,19.54
2017-07-30T04:54:01.691Z,19.67
2017-07-30T04:56:29.460Z,19.84
2017-07-30T04:58:57.286Z,20.04
2017-07-30T05:01:25.087Z,20.23
2017-07-30T05:03:52.866Z,20.40
2017-07-30T05:06:20.706Z,20.54
2017-07-30T05:08:48.499Z,20.58
2017-07-30T05:11:16.358Z,20.60
2017-07-30T05:13:44.130Z,20.67
2017-07-30T05:16:12.022Z,20.74
2017-07-30T05:18:39.823Z,20.79
2017-07-30T05:21:07.678Z,20.95
2017-07-30T05:23:35.491Z,21.32
2017-07-30T05:26:03.358Z,22.10
2017-07-30T05:28:31.170Z,22.57
2017-07-30T05:30:59.002Z,22.69
2017-07-30T05:33:26.793Z,22.52
2017-07-30T05:35:54.730Z,22.05
2017-07-30T05:38:22.520Z,21.69
2017-07-30T05:40:50.337Z,21.49
2017-07-30T05:43:18.145Z,21.42
2017-07-30T05:45:45.997Z,21.34
2017-07-30T05:48:13.783Z,21.24
2017-07-30T05:50:41.634Z,21.14
2017-07-30T05:53:09.435Z,21.17
2017-07-30T05:55:37.314Z,21.21
2017-07-30T05:58:05.108Z,21.28
2017-07-30T06:00:33.006Z,21.36
2017-07-30T06:03:00.819Z,21.42
2017-07-30T06:05:28.657Z,21.46
2017-07-30T06:07:56.525Z,21.43
2017-07-30T06:10:24.296Z,21.42
2017-07-30T06:12:52.132Z,21.38
2017-07-30T06:15:19.969Z,21.39
2017-07-30T06:17:47.807Z,21.36
2017-07-30T06:20:15.616Z,21.34
2017-07-30T06:22:43.449Z,21.35
2017-07-30T06:25:11.231Z,21.32
2017-07-30T06:27:39.094Z,21.30
2017-07-30T06:30:06.893Z,21.34
2017-07-30T06:32:34.719Z,21.33
2017-07-30T06:35:02.516Z,21.32
2017-07-30T06:37:30.409Z,21.30
2017-07-30T06:39:58.200Z,21.25
2017-07-30T06:42:26.008Z,21.19
2017-07-30T06:44:53.778Z,21.15
2017-07-30T06:47:21.611Z,21.13
2017-07-30T06:49:49.387Z,21.21
2017-07-30T06:52:18.036Z,21.34
2017-07-30T06:54:45.827Z,21.39
2017-07-30T06:57:13.672Z,21.39
2017-07-30T06:59:41.483Z,21.37
2017-07-30T07:02:09.339Z,21.34
2017-07-30T07:04:37.107Z,21.12
2017-07-30T07:07:04.895Z,21.00
2017-07-30T07:09:32.735Z,20.88
2017-07-30T07:12:00.550Z,20.80
2017-07-30T07:14:28.413Z,20.71
2017-07-30T07:16:56.201Z,20.63
2017-07-30T07:19:24.049Z,20.67
2017-07-30T07:21:51.836Z,20.74
2017-07-30T07:24:19.694Z,20.85
2017-07-30T07:26:47.495Z,21.01
2017-07-30T07:29:15.354Z,21.22
2017-07-30T07:31:43.151Z,21.38
2017-07-30T07:34:11.114Z,21.52
2017-07-30T07:36:38.945Z,21.60
2017-07-30T07:39:06.788Z,21.69
2017-07-30T07:41:34.581Z,21.70
2017-07-30T07:44:02.403Z,21.68
2017-07-30T07:46:30.337Z,21.63
2017-07-30T07:48:58.168Z,21.59
2017-07-30T07:51:25.941Z,21.64
2017-07-30T07:53:53.702Z,21.79
2017-07-30T07:56:21.476Z,21.91
2017-07-30T07:58:49.304Z,22.05
2017-07-30T08:01:17.097Z,22.16
2017-07-30T08:03:44.891Z,22.31
2017-07-30T08:06:12.708Z,22.34
2017-07-30T08:08:40.488Z,22.12
2017-07-30T08:11:08.314Z,21.86
2017-07-30T08:13:36.114Z,21.74
2017-07-30T08:16:03.947Z,21.65
2017-07-30T08:18:31.733Z,21.68
2017-07-30T08:20:59.584Z,21.66
2017-07-30T08:23:27.380Z,21.62
2017-07-30T08:25:55.226Z,21.55
2017-07-30T08:28:23.023Z,21.53
2017-07-30T08:30:50.880Z,21.56
2017-07-30T08:33:18.673Z,21.70
2017-07-30T08:35:46.546Z,21.75
2017-07-30T08:38:14.380Z,21.76
2017-07-30T08:40:42.237Z,21.68
2017-07-30T08:43:10.024Z,21.39
2017-07-30T08:45:37.864Z,21.29
2017-07-30T08:48:05.887Z,21.38
2017-07-30T08:50:33.739Z,21.41
2017-07-30T08:53:01.536Z,21.40
2017-07-30T08:55:29.369Z,21.40
2017-07-30T08:57:57.175Z,21.36
2017-07-30T09:00:25.010Z,21.30
2017-07-30T09:02:52.850Z,21.41
2017-07-30T09:05:20.631Z,21.64
2017-07-30T09:07:48.488Z,22.11
2017-07-30T09:10:16.277Z,22.54
2017-07-30T09:12:44.089Z,22.73
2017-07-30T09:15:11.922Z,22.67
2017-07-30T09:17:39.777Z,22.72
2017-07-30T09:20:07.585Z,23.33
2017-07-30T09:22:35.445Z,24.02
2017-07-30T09:25:03.233Z,24.24
2017-07-30T09:27:31.077Z,24.49
2017-07-30T09:29:58.870Z,24.67
2017-07-30T09:32:26.716Z,24.67
2017-07-30T09:34:54.512Z,24.61
2017-07-30T09:37:22.390Z,24.50
2017-07-30T09:39:50.254Z,24.66
2017-07-30T09:42:18.089Z,24.87
2017-07-30T09:44:45.911Z,24.84
2017-07-30T09:47:13.793Z,24.69
2017-07-30T09:49:41.585Z,24.86
2017-07-30T09:52:09.439Z,25.11
2017-07-30T09:54:37.217Z,25.12
2017-07-30T09:57:05.055Z,25.04
2017-07-30T09:59:32.894Z,25.14
2017-07-30T10:02:00.718Z,25.30
2017-07-30T10:04:28.570Z,25.44
2017-07-30T10:06:56.419Z,25.82
2017-07-30T10:09:24.263Z,26.09
2017-07-30T10:11:52.044Z,26.19
2017-07-30T10:14:19.919Z,26.30
2017-07-30T10:16:47.732Z,26.70
2017-07-30T10:19:15.582Z,26.86
2017-07-30T10:21:43.376Z,26.90
2017-07-30T10:24:11.228Z,27.25
2017-07-30T10:26:39.005Z,27.49
2017-07-30T10:29:06.834Z,27.76
2017-07-30T10:31:34.651Z,27.85
2017-07-30T10:34:02.519Z,28.04
2017-07-30T10:36:30.364Z,28.16
2017-07-30T10:38:58.175Z,28.37
2017-07-30T10:41:26.065Z,28.24
2017-07-30T10:43:53.875Z,27.91
2017-07-30T10:46:21.731Z,27.51
2017-07-30T10:48:49.546Z,27.07
2017-07-30T10:51:17.453Z,27.20
2017-07-30T10:53:45.251Z,27.45
2017-07-30T10:56:13.117Z,27.62
2017-07-30T10:58:40.914Z,27.88
2017-07-30T11:01:08.737Z,28.20
2017-07-30T11:03:37.167Z,28.43
2017-07-30T11:06:05.011Z,28.52
2017-07-30T11:08:33.368Z,28.23
2017-07-30T11:11:01.208Z,28.03
2017-07-30T11:13:29.011Z,28.00
2017-07-30T11:15:56.847Z,28.33
2017-07-30T11:18:24.681Z,28.47
2017-07-30T11:20:52.539Z,28.17
2017-07-30T11:23:20.328Z,28.34
2017-07-30T11:25:48.152Z,28.54
2017-07-30T11:28:15.997Z,28.94
2017-07-30T11:30:43.786Z,29.30
2017-07-30T11:33:11.645Z,29.40
2017-07-30T11:35:39.480Z,29.29
2017-07-30T11:38:07.421Z,29.35
2017-07-30T11:40:35.228Z,29.56
2017-07-30T11:43:03.064Z,29.50
2017-07-30T11:45:30.854Z,29.29
2017-07-30T11:47:58.673Z,29.23
2017-07-30T11:50:26.446Z,29.31
2017-07-30T11:52:54.317Z,29.30
2017-07-30T11:55:22.133Z,29.22
2017-07-30T11:57:49.977Z,28.86
2017-07-30T12:00:17.763Z,28.68
2017-07-30T12:02:45.630Z,28.93
2017-07-30T12:05:13.470Z,29.12
2017-07-30T12:07:41.272Z,28.94
2017-07-30T12:10:09.134Z,28.70
2017-07-30T12:12:36.923Z,28.89
2017-07-30T12:15:04.792Z,29.12
2017-07-30T12:17:32.576Z,29.38
2017-07-30T12:20:00.398Z,29.71
2017-07-30T12:22:28.196Z,29.93
2017-07-30T12:24:56.065Z,30.07
2017-07-30T12:27:23.864Z,30.28
2017-07-30T12:29:51.711Z,30.34
2017-07-30T12:32:19.564Z,30.39
2017-07-30T12:34:47.331Z,30.23
2017-07-30T12:37:15.216Z,30.16
2017-07-30T12:39:43.013Z,30.14
2017-07-30T12:42:10.836Z,30.04
2017-07-30T12:44:38.626Z,29.78
2017-07-30T12:47:06.470Z,29.88
2017-07-30T12:49:34.248Z,29.90
2017-07-30T12:52:02.088Z,29.33
2017-07-30T12:54:29.889Z,28.90
2017-07-30T12:56:57.761Z,28.58
2017-07-30T12:59:25.593Z,28.44
2017-07-30T13:01:53.405Z,28.77
2017-07-30T13:04:21.213Z,29.13
2017-07-30T13:06:49.009Z,29.29
2017-07-30T13:09:16.865Z,29.27
2017-07-30T13:11:44.644Z,29.55
2017-07-30T13:14:12.477Z,29.82
2017-07-30T13:16:40.270Z,29.98
2017-07-30T13:19:08.087Z,29.90
2017-07-30T13:21:35.882Z,29.65
2017-07-30T13:24:03.742Z,29.44
2017-07-30T13:26:31.567Z,29.04
2017-07-30T13:28:59.364Z,28.86
2017-07-30T13:31:27.188Z,29.12
2017-07-30T13:33:54.982Z,29.62
2017-07-30T13:36:22.845Z,29.70
2017-07-30T13:38:50.644Z,29.67
2017-07-30T13:41:18.504Z,29.64
2017-07-30T13:43:46.320Z,29.61
2017-07-30T13:46:14.233Z,29.75
2017-07-30T13:48:42.033Z,30.00
2017-07-30T13:51:09.870Z,29.99
2017-07-30T13:53:37.664Z,29.71
2017-07-30T13:56:05.537Z,29.61
2017-07-30T13:58:33.335Z,29.63
2017-07-30T14:01:01.136Z,29.81
2017-07-30T14:03:28.985Z,29.61
2017-07-30T14:05:56.788Z,29.47
2017-07-30T14:08:24.656Z,29.29
2017-07-30T14:10:52.488Z,29.16
2017-07-30T14:13:20.332Z,29.21
2017-07-30T14:15:48.156Z,29.17
2017-07-30T14:18:15.988Z,29.13
2017-07-30T14:20:43.841Z,29.27
2017-07-30T14:23:11.699Z,29.22
2017-07-30T14:25:39.492Z,29.26
2017-07-30T14:28:07.264Z,29.36
2017-07-30T14:30:35.269Z,29.35
2017-07-30T14:33:03.074Z,29.19
2017-07-30T14:35:30.893Z,29.21
2017-07-30T14:37:58.716Z,29.32
2017-07-30T14:40:26.571Z,29.48
2017-07-30T14:42:54.389Z,29.68
2017-07-30T14:45:22.209Z,29.57
2017-07-30T14:47:49.979Z,29.53
2017-07-30T14:50:17.844Z,29.36
2017-07-30T14:52:45.619Z,29.24
2017-07-30T14:55:13.425Z,29.24
2017-07-30T14:57:41.268Z,29.19
2017-07-30T15:00:09.093Z,29.05
2017-07-30T15:02:36.958Z,28.98
2017-07-30T15:05:04.746Z,29.07
2017-07-30T15:07:32.598Z,29.31
2017-07-30T15:10:00.393Z,29.48
2017-07-30T15:12:28.235Z,29.40
2017-07-30T15:14:56.040Z,29.20
2017-07-30T15:17:23.924Z,29.19
2017-07-30T15:19:51.706Z,29.33
2017-07-30T15:22:19.488Z,29.21
2017-07-30T15:24:47.345Z,28.85
2017-07-30T15:27:15.128Z,28.70
2017-07-30T15:29:43.017Z,28.55
2017-07-30T15:32:10.861Z,28.44
2017-07-30T15:34:38.702Z,28.34
2017-07-30T15:37:06.589Z,28.22
2017-07-30T15:39:34.476Z,28.09
2017-07-30T15:42:02.278Z,28.04
2017-07-30T15:44:30.134Z,27.96
2017-07-30T15:46:58.292Z,27.92
2017-07-30T15:49:26.119Z,27.83
2017-07-30T15:51:54.003Z,27.89
2017-07-30T15:54:21.822Z,28.08
2017-07-30T15:56:49.679Z,28.27
2017-07-30T15:59:17.498Z,28.43
2017-07-30T16:01:45.317Z,28.47
2017-07-30T16:04:13.141Z,28.27
2017-07-30T16:06:41.020Z,28.04
2017-07-30T16:09:09.928Z,27.89
2017-07-30T16:11:37.797Z,27.83
2017-07-30T16:14:05.597Z,27.81
2017-07-30T16:16:33.325Z,27.80
2017-07-30T16:19:01.195Z,27.79
2017-07-30T16:21:28.922Z,27.90
2017-07-30T16:23:56.765Z,27.99
2017-07-30T16:26:24.580Z,27.99
2017-07-30T16:28:52.341Z,28.04
2017-07-30T16:31:23.135Z,28.33
2017-07-30T16:33:51.191Z,28.42
2017-07-30T16:36:18.892Z,28.42
2017-07-30T16:38:46.671Z,28.23
2017-07-30T16:41:14.367Z,28.23
2017-07-30T16:43:42.089Z,28.21
2017-07-30T16:46:09.920Z,28.12
2017-07-30T16:48:38.640Z,28.04
2017-07-30T16:51:06.490Z,28.07
2017-07-30T16:53:34.272Z,28.17
2017-07-30T16:56:02.134Z,28.24
2017-07-30T16:58:29.916Z,28.32
2017-07-30T17:00:57.761Z,28.25
2017-07-30T17:03:25.593Z,28.18
2017-07-30T17:05:53.436Z,28.12
2017-07-30T17:08:21.247Z,28.01
2017-07-30T17:10:49.052Z,27.64
2017-07-30T17:13:16.889Z,27.53
2017-07-30T17:15:44.704Z,27.61
2017-07-30T17:18:12.559Z,27.76
2017-07-30T17:20:40.331Z,27.82
2017-07-30T17:23:08.169Z,27.89
2017-07-30T17:25:35.976Z,27.84
2017-07-30T17:28:03.801Z,27.81
2017-07-30T17:30:31.585Z,27.69
2017-07-30T17:32:59.424Z,27.62
2017-07-30T17:35:27.269Z,27.48
2017-07-30T17:37:55.204Z,27.47
2017-07-30T17:40:23.032Z,27.34
2017-07-30T17:42:50.814Z,27.23
2017-07-30T17:45:18.674Z,27.07
2017-07-30T17:47:46.472Z,26.95
2017-07-30T17:50:14.344Z,26.83
2017-07-30T17:52:42.177Z,26.72
2017-07-30T17:55:10.046Z,26.71
2017-07-30T17:57:37.833Z,27.32
2017-07-30T18:00:05.695Z,28.18
2017-07-30T18:02:33.531Z,28.84
2017-07-30T18:05:01.330Z,29.08
2017-07-30T18:07:29.174Z,28.72
2017-07-30T18:09:56.968Z,28.33
2017-07-30T18:12:24.799Z,27.92
2017-07-30T18:14:52.592Z,27.11
2017-07-30T18:17:20.437Z,25.85
2017-07-30T18:19:48.238Z,25.23
2017-07-30T18:22:16.103Z,25.21
2017-07-30T18:24:43.899Z,25.44
2017-07-30T18:27:11.760Z,25.65
2017-07-30T18:29:39.542Z,25.80
2017-07-30T18:32:07.357Z,25.75
2017-07-30T18:34:35.218Z,25.61
2017-07-30T18:37:03.056Z,25.52
2017-07-30T18:39:30.903Z,25.43
2017-07-30T18:41:58.743Z,25.34
2017-07-30T18:44:26.672Z,25.12
2017-07-30T18:46:54.481Z,24.69
2017-07-30T18:49:22.367Z,24.37
2017-07-30T18:51:50.171Z,23.89
2017-07-30T18:54:17.955Z,23.59
2017-07-30T18:56:45.799Z,23.39
2017-07-30T18:59:13.581Z,23.24
2017-07-30T19:01:41.447Z,23.02
2017-07-30T19:04:09.294Z,22.93
2017-07-30T19:06:37.152Z,22.82
2017-07-30T19:09:05.015Z,22.64
2017-07-30T19:11:32.869Z,22.48
2017-07-30T19:14:00.717Z,22.29
2017-07-30T19:16:28.587Z,22.09
2017-07-30T19:18:56.415Z,21.92
2017-07-30T19:21:24.252Z,21.74
2017-07-30T19:23:51.996Z,21.58
2017-07-30T19:26:19.803Z,21.44
2017-07-30T19:28:47.704Z,21.35
2017-07-30T19:31:15.525Z,21.21
2017-07-30T19:33:43.425Z,21.13
2017-07-30T19:36:11.301Z,21.10
2017-07-30T19:38:39.174Z,21.06
2017-07-30T19:41:06.971Z,21.01
2017-07-30T19:43:34.867Z,20.94
2017-07-30T19:46:02.666Z,20.92
2017-07-30T19:48:30.503Z,20.90
2017-07-30T19:50:58.343Z,20.81
2017-07-30T19:53:26.171Z,20.76
2017-07-30T19:55:54.006Z,20.68
2017-07-30T19:58:21.824Z,20.61
2017-07-30T20:00:49.655Z,20.53
2017-07-30T20:03:17.446Z,20.41
2017-07-30T20:05:45.278Z,20.41
2017-07-30T20:08:13.060Z,20.34
2017-07-30T20:10:40.911Z,20.28
2017-07-30T20:13:08.696Z,20.19
2017-07-30T20:15:36.510Z,20.06
2017-07-30T20:18:04.367Z,19.98
2017-07-30T20:20:32.669Z,19.97
2017-07-30T20:23:00.731Z,20.00
2017-07-30T20:25:28.539Z,19.96
2017-07-30T20:27:56.411Z,19.96
2017-07-30T20:30:24.212Z,19.96
2017-07-30T20:32:52.060Z,19.95
2017-07-30T20:35:19.886Z,19.88
2017-07-30T20:37:47.907Z,19.80
2017-07-30T20:40:15.736Z,19.72
2017-07-30T20:42:43.544Z,19.66
2017-07-30T20:45:11.391Z,19.63
2017-07-30T20:47:39.207Z,19.60
2017-07-30T20:50:07.060Z,19.57
2017-07-30T20:52:34.863Z,19.52
2017-07-30T20:55:02.727Z,19.38
2017-07-30T20:57:30.518Z,19.27
2017-07-30T20:59:58.348Z,19.14
2017-07-30T21:02:26.137Z,19.02
2017-07-30T21:04:54.021Z,18.90
2017-07-30T21:07:21.817Z,18.86
2017-07-30T21:09:49.598Z,19.01
2017-07-30T21:12:17.465Z,19.07
2017-07-30T21:14:45.265Z,19.17
2017-07-30T21:17:13.121Z,19.18
2017-07-30T21:19:40.912Z,19.05
2017-07-30T21:22:08.764Z,18.94
2017-07-30T21:24:36.591Z,18.80
2017-07-30T21:27:04.436Z,18.68
2017-07-30T21:29:32.243Z,18.64
2017-07-30T21:32:00.073Z,18.66
2017-07-30T21:34:27.856Z,18.69
2017-07-30T21:36:55.682Z,18.69
2017-07-30T21:39:23.515Z,18.71
2017-07-30T21:41:51.300Z,18.74
2017-07-30T21:44:19.218Z,18.75
2017-07-30T21:46:47.021Z,18.74
2017-07-30T21:49:14.854Z,18.66
2017-07-30T21:51:42.655Z,18.59
2017-07-30T21:54:10.480Z,18.55
2017-07-30T21:56:38.281Z,18.55
2017-07-30T21:59:06.187Z,18.56
2017-07-30T22:01:33.980Z,18.45
2017-07-30T22:04:01.818Z,18.27
2017-07-30T22:06:29.631Z,18.18
2017-07-30T22:08:57.421Z,18.11
2017-07-30T22:11:25.258Z,18.08
2017-07-30T22:13:53.047Z,18.04
2017-07-30T22:16:20.895Z,17.98
2017-07-30T22:18:48.686Z,17.95
2017-07-30T22:21:16.504Z,17.91
2017-07-30T22:23:44.280Z,17.83
2017-07-30T22:26:12.162Z,17.80
2017-07-30T22:28:39.941Z,17.74
2017-07-30T22:31:07.760Z,17.66
2017-07-30T22:33:35.601Z,17.58
2017-07-30T22:36:03.388Z,17.49
2017-07-30T22:38:31.318Z,17.38
2017-07-30T22:40:59.104Z,17.29
2017-07-30T22:43:26.946Z,17.16
2017-07-30T22:45:54.806Z,17.05
2017-07-30T22:48:22.633Z,16.99
2017-07-30T22:50:50.444Z,16.91
2017-07-30T22:53:18.260Z,16.97
2017-07-30T22:55:46.028Z,16.99
2017-07-30T22:58:13.860Z,17.09
2017-07-30T23:00:41.637Z,17.17
2017-07-30T23:03:09.457Z,17.18
2017-07-30T23:05:37.288Z,17.16
2017-07-30T23:08:05.078Z,17.14
2017-07-30T23:10:32.881Z,17.17
2017-07-30T23:13:00.640Z,17.21
2017-07-30T23:15:28.473Z,17.25
2017-07-30T23:17:56.269Z,17.28
2017-07-30T23:20:24.101Z,17.29
2017-07-30T23:22:51.866Z,17.27
2017-07-30T23:25:19.721Z,17.22
2017-07-30T23:27:47.491Z,17.20
2017-07-30T23:30:15.261Z,17.16
2017-07-30T23:32:43.064Z,17.13
2017-07-30T23:35:10.845Z,17.14
2017-07-30T23:37:38.696Z,17.10
2017-07-30T23:40:06.477Z,17.07
2017-07-30T23:42:34.284Z,17.05
2017-07-30T23:45:02.059Z,16.95
2017-07-30T23:47:29.889Z,16.89
2017-07-30T23:49:57.661Z,16.80
2017-07-30T23:52:25.452Z,16.77
2017-07-30T23:54:53.237Z,16.77
2017-07-30T23:57:21.022Z,16.71
2017-07-30T23:59:48.851Z,16.67
